Adriatic Sea — WDB5553 — position and weather

sailwx.info

Track history (hours):
 
Tides and Currents Weather Stations Pressure Air Temp Water Temp Dewpoint Dewpoint Depression Visibility Wind Speed Wind Dir Waves Ship Positions

Adriatic Sea

Owner: Kirby Offshore Marine, LLC, Seattle, WA. More information available from US FCC via Universal Licensing System and Coast Guard Vessel Documentation Center.

Last reported at 2015-Sep-02 06:33 UTC. Time now 2015-Sep-02 08:36 UTC.
Position N 48°15' W 124°06'.

Length 42 m; draft 5.3 m.

Type: Tug. MMSI: 366910890.

Date/timePositionNaut miles runAvg speedWind from/ knotsBaromVisibWave heightAir tempDewpointWater temp
2015-Sep-02 06:33N 48°15' W 124°06'7 7.2
2015-Sep-02 05:33N 48°12' W 123°56'8 7.5
2015-Sep-02 04:33N 48°12' W 123°45'6 6.5
2015-Sep-02 03:33N 48°11' W 123°35'5 5.4
2015-Sep-02 02:33N 48°10' W 123°27'2 6.2
2015-Sep-02 02:12N 48°09' W 123°25'2 3.3
2015-Sep-02 01:33N 48°08' W 123°27'0 0.1
2015-Sep-02 00:57N 48°08' W 123°27'0 0.0
2015-Sep-02 00:33N 48°08' W 123°27'0 0.0
2015-Sep-01 23:31N 48°08' W 123°27'0 0.0
2015-Sep-01 23:06N 48°08' W 123°27'0 0.0
2015-Sep-01 22:33N 48°08' W 123°27'0 0.0
2015-Sep-01 21:41N 48°08' W 123°27'0 0.0
2015-Sep-01 21:31N 48°08' W 123°27'0 0.0
2015-Sep-01 21:30N 48°08' W 123°27'0 0.0
2015-Sep-01 20:33N 48°08' W 123°27'0 0.0
2015-Sep-01 19:33N 48°08' W 123°27'0 0.0
2015-Sep-01 18:33N 48°08' W 123°27'0 0.0
2015-Sep-01 16:19N 48°08' W 123°27'0 0.1
2015-Sep-01 15:33N 48°08' W 123°27'0 0.0
2015-Sep-01 15:25N 48°08' W 123°27'0 0.0
2015-Sep-01 14:32N 48°08' W 123°27'0 0.0
2015-Sep-01 13:33N 48°08' W 123°27'4 4.2
2015-Sep-01 12:33N 48°09' W 123°21'4 4.2
2015-Sep-01 11:33N 48°11' W 123°15'2 2.4
2015-Sep-01 10:33N 48°10' W 123°19'5 5.5
2015-Sep-01 09:33N 48°14' W 123°12'6 5.8
2015-Sep-01 08:32N 48°17' W 123°06'7 6.3
2015-Sep-01 07:28N 48°21' W 122°57'5 5.5
2015-Sep-01 06:30N 48°24' W 122°50'7 7.3
2015-Sep-01 05:32N 48°30' W 122°45'8 8.0
2015-Sep-01 04:32N 48°38' W 122°44'6 6.2
2015-Sep-01 03:33N 48°44' W 122°46'5 4.6
2015-Sep-01 02:33N 48°48' W 122°45'2 0.1
2015-Aug-31 07:32N 48°50' W 122°43'0 0.0
2015-Aug-31 06:15N 48°50' W 122°43'0 0.0
2015-Aug-31 05:33N 48°50' W 122°43'0 0.0
2015-Aug-31 04:32N 48°50' W 122°43'0 0.0
2015-Aug-31 03:33N 48°50' W 122°43'0 0.0
2015-Aug-31 02:33N 48°50' W 122°43'0 0.0
2015-Aug-31 01:33N 48°50' W 122°43'0 0.0
2015-Aug-31 00:33N 48°50' W 122°43'1 0.4
2015-Aug-30 22:33N 48°50' W 122°44'2 1.7
2015-Aug-30 21:33N 48°51' W 122°46'1 0.8
2015-Aug-30 20:29N 48°51' W 122°47'4 4.0
2015-Aug-30 19:33N 48°47' W 122°47'3 2.9
2015-Aug-30 18:33N 48°50' W 122°47'1 0.8
2015-Aug-30 17:22N 48°49' W 122°48'1 0.8
2015-Aug-30 16:32N 48°49' W 122°47'3 2.2
2015-Aug-30 15:21N 48°51' W 122°48'3 1.3
2015-Aug-30 13:14N 48°50' W 122°44'3 3.1
2015-Aug-30 12:16N 48°48' W 122°47'3 1.5
2015-Aug-30 10:34N 48°50' W 122°44'3 2.1
2015-Aug-30 09:15N 48°51' W 122°48'2 3.3
2015-Aug-30 08:30N 48°50' W 122°45'2 2.2
2015-Aug-30 07:26N 48°48' W 122°47'3 2.6
2015-Aug-30 06:20N 48°51' W 122°46'4 3.9
2015-Aug-30 05:24N 48°47' W 122°45'4 4.3
2015-Aug-30 04:34N 48°50' W 122°48'3 2.6
2015-Aug-30 03:30N 48°49' W 122°44'1 1.4
2015-Aug-30 02:31N 48°50' W 122°46'1 0.9
2015-Aug-30 01:15N 48°51' W 122°46'1 0.4
2015-Aug-29 23:15N 48°50' W 122°45'0 0.7
2015-Aug-29 22:32N 48°50' W 122°46'1 0.8
2015-Aug-29 21:32N 48°50' W 122°46'1 0.8
2015-Aug-29 20:33N 48°49' W 122°45'1 1.4
2015-Aug-29 19:33N 48°50' W 122°45'0 0.2
2015-Aug-29 18:20N 48°50' W 122°45'0 0.4
2015-Aug-29 17:33N 48°50' W 122°45'2 1.9
2015-Aug-29 16:32N 48°48' W 122°45'4 3.7
2015-Aug-29 15:31N 48°45' W 122°45'4 4.4
2015-Aug-29 14:33N 48°41' W 122°42'5 5.2
2015-Aug-29 13:34N 48°36' W 122°45'6 6.3
2015-Aug-29 12:33N 48°30' W 122°44'7 7.3
2015-Aug-29 11:34N 48°23' W 122°49'8 8.2
2015-Aug-29 10:33N 48°19' W 122°60'9 7.4
2015-Aug-29 09:20N 48°14' W 123°11'6 7.5
2015-Aug-29 08:33N 48°12' W 123°20'8 8.0
2015-Aug-29 07:32N 48°12' W 123°32'7 6.6
2015-Aug-29 06:31N 48°13' W 123°42'6 6.2
2015-Aug-29 05:33N 48°13' W 123°51'6 6.4
2015-Aug-29 04:33N 48°14' W 124°00'6 6.3
2015-Aug-29 03:33N 48°17' W 124°09'6 6.2
2015-Aug-29 02:34N 48°20' W 124°17'6 6.2
2015-Aug-29 01:34N 48°22' W 124°26'6 6.2
2015-Aug-29 00:33N 48°24' W 124°34'7 7.0
2015-Aug-28 23:33N 48°27' W 124°44'8 7.6
2015-Aug-28 22:31N 48°25' W 124°56'105 7.0
2015-Aug-28 07:26N 46°40' W 125°00'6 6.9
2015-Aug-28 06:33N 46°34' W 125°00'7 6.8
2015-Aug-28 05:34N 46°27' W 124°60'7 7.2
2015-Aug-28 04:34N 46°20' W 125°00'7 7.2
2015-Aug-28 03:33N 46°13' W 124°60'7 7.2
2015-Aug-28 02:33N 46°06' W 124°60'7 7.1
2015-Aug-28 01:34N 45°59' W 124°59'7 7.1
2015-Aug-28 00:33N 45°52' W 124°60'7 6.9
2015-Aug-27 23:33N 45°45' W 124°60'6 6.2
2015-Aug-27 22:33N 45°38' W 125°00'5 5.4
2015-Aug-27 21:34N 45°33' W 125°00'6 5.6
2015-Aug-27 20:34N 45°27' W 125°00'11 5.6
2015-Aug-27 18:34N 45°16' W 125°00'  
2015-Aug-25 02:33N 38°56' W 124°21'6 5.7
2015-Aug-25 01:33N 38°50' W 124°19'6 6.1
2015-Aug-25 00:33N 38°45' W 124°16'7 5.8
2015-Aug-24 23:16N 38°38' W 124°13'4 5.9
2015-Aug-24 22:33N 38°34' W 124°11'6 6.0
2015-Aug-24 21:33N 38°28' W 124°08'6 6.1
2015-Aug-24 20:34N 38°22' W 124°05'8 5.9
2015-Aug-24 19:16N 38°15' W 124°02'5 6.0
2015-Aug-24 18:24N 38°10' W 124°00'18 6.2
2015-Aug-24 15:32N 37°53' W 123°52'6 5.9
2015-Aug-24 14:32N 37°48' W 123°49'6 5.8
2015-Aug-24 13:30N 37°42' W 123°47'11 5.6
2015-Aug-24 11:30N 37°32' W 123°42'6 5.8
2015-Aug-24 10:24N 37°26' W 123°39'  
Track history (hours):
 
Tides and Currents Weather Stations Pressure Air Temp Water Temp Dewpoint Dewpoint Depression Visibility Wind Speed Wind Dir Waves Ship Positions

Adriatic Sea

Owner: Kirby Offshore Marine, LLC, Seattle, WA. More information available from US FCC via Universal Licensing System and Coast Guard Vessel Documentation Center.

Last reported at 2015-Sep-02 06:33 UTC. Time now 2015-Sep-02 08:36 UTC.
Position N 48°15' W 124°06'.

Length 42 m; draft 5.3 m.

Type: Tug. MMSI: 366910890.

Date/timePositionNaut miles runAvg speedWind from/ knotsBaromVisibWave heightAir tempDewpointWater temp
2015-Sep-02 06:33N 48°15' W 124°06'7 7.2
2015-Sep-02 05:33N 48°12' W 123°56'8 7.5
2015-Sep-02 04:33N 48°12' W 123°45'6 6.5
2015-Sep-02 03:33N 48°11' W 123°35'5 5.4
2015-Sep-02 02:33N 48°10' W 123°27'2 6.2
2015-Sep-02 02:12N 48°09' W 123°25'2 3.3
2015-Sep-02 01:33N 48°08' W 123°27'0 0.1
2015-Sep-02 00:57N 48°08' W 123°27'0 0.0
2015-Sep-02 00:33N 48°08' W 123°27'0 0.0
2015-Sep-01 23:31N 48°08' W 123°27'0 0.0
2015-Sep-01 23:06N 48°08' W 123°27'0 0.0
2015-Sep-01 22:33N 48°08' W 123°27'0 0.0
2015-Sep-01 21:41N 48°08' W 123°27'0 0.0
2015-Sep-01 21:31N 48°08' W 123°27'0 0.0
2015-Sep-01 21:30N 48°08' W 123°27'0 0.0
2015-Sep-01 20:33N 48°08' W 123°27'0 0.0
2015-Sep-01 19:33N 48°08' W 123°27'0 0.0
2015-Sep-01 18:33N 48°08' W 123°27'0 0.0
2015-Sep-01 16:19N 48°08' W 123°27'0 0.1
2015-Sep-01 15:33N 48°08' W 123°27'0 0.0
2015-Sep-01 15:25N 48°08' W 123°27'0 0.0
2015-Sep-01 14:32N 48°08' W 123°27'0 0.0
2015-Sep-01 13:33N 48°08' W 123°27'4 4.2
2015-Sep-01 12:33N 48°09' W 123°21'4 4.2
2015-Sep-01 11:33N 48°11' W 123°15'2 2.4
2015-Sep-01 10:33N 48°10' W 123°19'5 5.5
2015-Sep-01 09:33N 48°14' W 123°12'6 5.8
2015-Sep-01 08:32N 48°17' W 123°06'7 6.3
2015-Sep-01 07:28N 48°21' W 122°57'5 5.5
2015-Sep-01 06:30N 48°24' W 122°50'7 7.3
2015-Sep-01 05:32N 48°30' W 122°45'8 8.0
2015-Sep-01 04:32N 48°38' W 122°44'6 6.2
2015-Sep-01 03:33N 48°44' W 122°46'5 4.6
2015-Sep-01 02:33N 48°48' W 122°45'2 0.1
2015-Aug-31 07:32N 48°50' W 122°43'0 0.0
2015-Aug-31 06:15N 48°50' W 122°43'0 0.0
2015-Aug-31 05:33N 48°50' W 122°43'0 0.0
2015-Aug-31 04:32N 48°50' W 122°43'0 0.0
2015-Aug-31 03:33N 48°50' W 122°43'0 0.0
2015-Aug-31 02:33N 48°50' W 122°43'0 0.0
2015-Aug-31 01:33N 48°50' W 122°43'0 0.0
2015-Aug-31 00:33N 48°50' W 122°43'1 0.4
2015-Aug-30 22:33N 48°50' W 122°44'2 1.7
2015-Aug-30 21:33N 48°51' W 122°46'1 0.8
2015-Aug-30 20:29N 48°51' W 122°47'4 4.0
2015-Aug-30 19:33N 48°47' W 122°47'3 2.9
2015-Aug-30 18:33N 48°50' W 122°47'1 0.8
2015-Aug-30 17:22N 48°49' W 122°48'1 0.8
2015-Aug-30 16:32N 48°49' W 122°47'3 2.2
2015-Aug-30 15:21N 48°51' W 122°48'3 1.3
2015-Aug-30 13:14N 48°50' W 122°44'3 3.1
2015-Aug-30 12:16N 48°48' W 122°47'3 1.5
2015-Aug-30 10:34N 48°50' W 122°44'3 2.1
2015-Aug-30 09:15N 48°51' W 122°48'2 3.3
2015-Aug-30 08:30N 48°50' W 122°45'2 2.2
2015-Aug-30 07:26N 48°48' W 122°47'3 2.6
2015-Aug-30 06:20N 48°51' W 122°46'4 3.9
2015-Aug-30 05:24N 48°47' W 122°45'4 4.3
2015-Aug-30 04:34N 48°50' W 122°48'3 2.6
2015-Aug-30 03:30N 48°49' W 122°44'1 1.4
2015-Aug-30 02:31N 48°50' W 122°46'1 0.9
2015-Aug-30 01:15N 48°51' W 122°46'1 0.4
2015-Aug-29 23:15N 48°50' W 122°45'0 0.7
2015-Aug-29 22:32N 48°50' W 122°46'1 0.8
2015-Aug-29 21:32N 48°50' W 122°46'1 0.8
2015-Aug-29 20:33N 48°49' W 122°45'1 1.4
2015-Aug-29 19:33N 48°50' W 122°45'0 0.2
2015-Aug-29 18:20N 48°50' W 122°45'0 0.4
2015-Aug-29 17:33N 48°50' W 122°45'2 1.9
2015-Aug-29 16:32N 48°48' W 122°45'4 3.7
2015-Aug-29 15:31N 48°45' W 122°45'4 4.4
2015-Aug-29 14:33N 48°41' W 122°42'5 5.2
2015-Aug-29 13:34N 48°36' W 122°45'6 6.3
2015-Aug-29 12:33N 48°30' W 122°44'7 7.3
2015-Aug-29 11:34N 48°23' W 122°49'8 8.2
2015-Aug-29 10:33N 48°19' W 122°60'9 7.4
2015-Aug-29 09:20N 48°14' W 123°11'6 7.5
2015-Aug-29 08:33N 48°12' W 123°20'8 8.0
2015-Aug-29 07:32N 48°12' W 123°32'7 6.6
2015-Aug-29 06:31N 48°13' W 123°42'6 6.2
2015-Aug-29 05:33N 48°13' W 123°51'6 6.4
2015-Aug-29 04:33N 48°14' W 124°00'6 6.3
2015-Aug-29 03:33N 48°17' W 124°09'6 6.2
2015-Aug-29 02:34N 48°20' W 124°17'6 6.2
2015-Aug-29 01:34N 48°22' W 124°26'6 6.2
2015-Aug-29 00:33N 48°24' W 124°34'7 7.0
2015-Aug-28 23:33N 48°27' W 124°44'8 7.6
2015-Aug-28 22:31N 48°25' W 124°56'105 7.0
2015-Aug-28 07:26N 46°40' W 125°00'6 6.9
2015-Aug-28 06:33N 46°34' W 125°00'7 6.8
2015-Aug-28 05:34N 46°27' W 124°60'7 7.2
2015-Aug-28 04:34N 46°20' W 125°00'7 7.2
2015-Aug-28 03:33N 46°13' W 124°60'7 7.2
2015-Aug-28 02:33N 46°06' W 124°60'7 7.1
2015-Aug-28 01:34N 45°59' W 124°59'7 7.1
2015-Aug-28 00:33N 45°52' W 124°60'7 6.9
2015-Aug-27 23:33N 45°45' W 124°60'6 6.2
2015-Aug-27 22:33N 45°38' W 125°00'5 5.4
2015-Aug-27 21:34N 45°33' W 125°00'6 5.6
2015-Aug-27 20:34N 45°27' W 125°00'11 5.6
2015-Aug-27 18:34N 45°16' W 125°00'  
2015-Aug-25 02:33N 38°56' W 124°21'6 5.7
2015-Aug-25 01:33N 38°50' W 124°19'6 6.1
2015-Aug-25 00:33N 38°45' W 124°16'7 5.8
2015-Aug-24 23:16N 38°38' W 124°13'4 5.9
2015-Aug-24 22:33N 38°34' W 124°11'6 6.0
2015-Aug-24 21:33N 38°28' W 124°08'6 6.1
2015-Aug-24 20:34N 38°22' W 124°05'8 5.9
2015-Aug-24 19:16N 38°15' W 124°02'5 6.0
2015-Aug-24 18:24N 38°10' W 124°00'18 6.2
2015-Aug-24 15:32N 37°53' W 123°52'6 5.9
2015-Aug-24 14:32N 37°48' W 123°49'6 5.8
2015-Aug-24 13:30N 37°42' W 123°47'11 5.6
2015-Aug-24 11:30N 37°32' W 123°42'6 5.8
2015-Aug-24 10:24N 37°26' W 123°39'  

Dump ship's entire track history